sensor_id;sensor_type;location;lat;lon;timestamp;P1;durP1;ratioP1;P2;durP2;ratioP2
38937;SDS011;24727;51.974;20.868;2023-07-31T00:00:51;4.70;;;1.73;;
38937;SDS011;24727;51.974;20.868;2023-07-31T00:03:17;2.30;;;1.60;;
38937;SDS011;24727;51.974;20.868;2023-07-31T00:05:43;2.00;;;1.67;;
38937;SDS011;24727;51.974;20.868;2023-07-31T00:08:09;3.85;;;1.83;;
38937;SDS011;24727;51.974;20.868;2023-07-31T00:10:35;1.73;;;1.63;;
38937;SDS011;24727;51.974;20.868;2023-07-31T00:13:01;1.85;;;1.65;;
38937;SDS011;24727;51.974;20.868;2023-07-31T00:15:27;1.55;;;1.45;;
38937;SDS011;24727;51.974;20.868;2023-07-31T00:17:55;2.80;;;1.67;;
38937;SDS011;24727;51.974;20.868;2023-07-31T00:20:21;1.70;;;1.60;;
38937;SDS011;24727;51.974;20.868;2023-07-31T00:22:50;3.85;;;1.30;;
38937;SDS011;24727;51.974;20.868;2023-07-31T00:25:16;2.08;;;1.58;;
38937;SDS011;24727;51.974;20.868;2023-07-31T00:27:41;1.98;;;1.52;;
38937;SDS011;24727;51.974;20.868;2023-07-31T00:30:10;2.25;;;1.48;;
38937;SDS011;24727;51.974;20.868;2023-07-31T00:32:36;1.50;;;1.40;;
38937;SDS011;24727;51.974;20.868;2023-07-31T00:35:02;2.42;;;1.33;;
38937;SDS011;24727;51.974;20.868;2023-07-31T00:37:28;2.67;;;1.50;;
38937;SDS011;24727;51.974;20.868;2023-07-31T00:39:55;4.28;;;1.55;;
38937;SDS011;24727;51.974;20.868;2023-07-31T00:42:21;2.55;;;1.70;;
38937;SDS011;24727;51.974;20.868;2023-07-31T00:44:48;1.75;;;1.33;;
38937;SDS011;24727;51.974;20.868;2023-07-31T00:47:14;1.73;;;1.40;;
38937;SDS011;24727;51.974;20.868;2023-07-31T00:49:40;2.70;;;1.20;;
38937;SDS011;24727;51.974;20.868;2023-07-31T00:52:06;3.25;;;1.63;;
38937;SDS011;24727;51.974;20.868;2023-07-31T00:54:34;4.32;;;1.48;;
38937;SDS011;24727;51.974;20.868;2023-07-31T00:57:00;6.50;;;1.52;;
38937;SDS011;24727;51.974;20.868;2023-07-31T00:59:27;3.85;;;1.50;;
38937;SDS011;24727;51.974;20.868;2023-07-31T01:01:53;1.58;;;1.42;;
38937;SDS011;24727;51.974;20.868;2023-07-31T01:04:20;1.42;;;1.33;;
38937;SDS011;24727;51.974;20.868;2023-07-31T01:07:49;4.30;;;1.90;;
38937;SDS011;24727;51.974;20.868;2023-07-31T01:09:49;2.10;;;1.35;;
38937;SDS011;24727;51.974;20.868;2023-07-31T01:12:28;1.83;;;1.35;;
38937;SDS011;24727;51.974;20.868;2023-07-31T01:15:03;1.95;;;1.60;;
38937;SDS011;24727;51.974;20.868;2023-07-31T01:17:31;1.52;;;1.40;;
38937;SDS011;24727;51.974;20.868;2023-07-31T01:19:59;6.43;;;1.73;;
38937;SDS011;24727;51.974;20.868;2023-07-31T01:22:51;5.63;;;1.40;;
38937;SDS011;24727;51.974;20.868;2023-07-31T01:28:19;2.20;;;1.77;;
38937;SDS011;24727;51.974;20.868;2023-07-31T01:30:50;3.78;;;1.45;;
38937;SDS011;24727;51.974;20.868;2023-07-31T01:33:20;1.60;;;1.35;;
38937;SDS011;24727;51.974;20.868;2023-07-31T01:35:46;1.50;;;1.40;;
38937;SDS011;24727;51.974;20.868;2023-07-31T01:38:14;4.18;;;2.00;;
38937;SDS011;24727;51.974;20.868;2023-07-31T01:40:43;6.00;;;1.67;;
38937;SDS011;24727;51.974;20.868;2023-07-31T01:43:09;3.15;;;1.88;;
38937;SDS011;24727;51.974;20.868;2023-07-31T01:45:35;2.50;;;1.80;;
38937;SDS011;24727;51.974;20.868;2023-07-31T01:48:03;2.17;;;1.85;;
38937;SDS011;24727;51.974;20.868;2023-07-31T01:50:29;2.30;;;2.10;;
38937;SDS011;24727;51.974;20.868;2023-07-31T01:52:56;2.40;;;1.70;;
38937;SDS011;24727;51.974;20.868;2023-07-31T01:55:22;2.58;;;2.03;;
38937;SDS011;24727;51.974;20.868;2023-07-31T01:57:48;4.60;;;1.95;;
38937;SDS011;24727;51.974;20.868;2023-07-31T02:00:14;2.55;;;1.70;;
38937;SDS011;24727;51.974;20.868;2023-07-31T02:02:40;3.88;;;1.70;;
38937;SDS011;24727;51.974;20.868;2023-07-31T02:05:06;4.15;;;2.10;;
38937;SDS011;24727;51.974;20.868;2023-07-31T02:07:33;1.95;;;1.85;;
38937;SDS011;24727;51.974;20.868;2023-07-31T02:09:59;1.98;;;1.88;;
38937;SDS011;24727;51.974;20.868;2023-07-31T02:12:24;3.33;;;1.90;;
38937;SDS011;24727;51.974;20.868;2023-07-31T02:14:50;4.45;;;2.08;;
38937;SDS011;24727;51.974;20.868;2023-07-31T02:17:16;3.22;;;2.22;;
38937;SDS011;24727;51.974;20.868;2023-07-31T02:19:42;2.90;;;2.33;;
38937;SDS011;24727;51.974;20.868;2023-07-31T02:22:09;3.75;;;2.60;;
38937;SDS011;24727;51.974;20.868;2023-07-31T02:24:35;4.05;;;3.20;;
38937;SDS011;24727;51.974;20.868;2023-07-31T02:27:01;5.38;;;2.90;;
38937;SDS011;24727;51.974;20.868;2023-07-31T02:29:28;3.38;;;2.80;;
38937;SDS011;24727;51.974;20.868;2023-07-31T02:31:54;5.70;;;2.70;;
38937;SDS011;24727;51.974;20.868;2023-07-31T02:34:20;5.50;;;3.00;;
38937;SDS011;24727;51.974;20.868;2023-07-31T02:36:46;5.13;;;3.00;;
38937;SDS011;24727;51.974;20.868;2023-07-31T02:39:13;4.38;;;2.75;;
38937;SDS011;24727;51.974;20.868;2023-07-31T02:41:39;3.65;;;2.67;;
38937;SDS011;24727;51.974;20.868;2023-07-31T02:44:06;3.13;;;2.85;;
38937;SDS011;24727;51.974;20.868;2023-07-31T02:46:34;6.95;;;3.13;;
38937;SDS011;24727;51.974;20.868;2023-07-31T02:49:01;4.22;;;3.25;;
38937;SDS011;24727;51.974;20.868;2023-07-31T02:51:27;7.60;;;2.90;;
38937;SDS011;24727;51.974;20.868;2023-07-31T02:53:53;3.13;;;2.83;;
38937;SDS011;24727;51.974;20.868;2023-07-31T02:56:19;2.60;;;2.35;;
38937;SDS011;24727;51.974;20.868;2023-07-31T02:58:45;3.20;;;2.67;;
38937;SDS011;24727;51.974;20.868;2023-07-31T03:01:12;4.03;;;2.30;;
38937;SDS011;24727;51.974;20.868;2023-07-31T03:03:37;5.32;;;2.38;;
38937;SDS011;24727;51.974;20.868;2023-07-31T03:06:03;5.28;;;2.22;;
38937;SDS011;24727;51.974;20.868;2023-07-31T03:08:29;4.38;;;2.80;;
38937;SDS011;24727;51.974;20.868;2023-07-31T03:10:56;2.70;;;2.38;;
38937;SDS011;24727;51.974;20.868;2023-07-31T03:13:22;4.25;;;2.47;;
38937;SDS011;24727;51.974;20.868;2023-07-31T03:15:49;6.45;;;2.60;;
38937;SDS011;24727;51.974;20.868;2023-07-31T03:18:18;3.63;;;2.42;;
38937;SDS011;24727;51.974;20.868;2023-07-31T03:23:13;3.42;;;2.70;;
38937;SDS011;24727;51.974;20.868;2023-07-31T03:25:41;2.53;;;2.33;;
38937;SDS011;24727;51.974;20.868;2023-07-31T03:28:20;3.60;;;2.60;;
38937;SDS011;24727;51.974;20.868;2023-07-31T03:30:46;3.92;;;2.35;;
38937;SDS011;24727;51.974;20.868;2023-07-31T03:33:12;3.92;;;2.60;;
38937;SDS011;24727;51.974;20.868;2023-07-31T03:35:39;6.88;;;2.42;;
38937;SDS011;24727;51.974;20.868;2023-07-31T03:38:05;3.03;;;2.30;;
38937;SDS011;24727;51.974;20.868;2023-07-31T03:40:31;3.60;;;2.80;;
38937;SDS011;24727;51.974;20.868;2023-07-31T03:42:57;4.20;;;2.22;;
38937;SDS011;24727;51.974;20.868;2023-07-31T03:45:23;5.75;;;2.58;;
38937;SDS011;24727;51.974;20.868;2023-07-31T03:47:51;3.15;;;2.40;;
38937;SDS011;24727;51.974;20.868;2023-07-31T03:50:17;3.80;;;2.80;;
38937;SDS011;24727;51.974;20.868;2023-07-31T03:52:43;4.32;;;2.25;;
38937;SDS011;24727;51.974;20.868;2023-07-31T03:55:09;3.92;;;2.30;;
38937;SDS011;24727;51.974;20.868;2023-07-31T03:57:36;3.67;;;2.28;;
38937;SDS011;24727;51.974;20.868;2023-07-31T04:00:02;2.90;;;2.22;;
38937;SDS011;24727;51.974;20.868;2023-07-31T04:02:29;5.88;;;2.60;;
38937;SDS011;24727;51.974;20.868;2023-07-31T04:04:57;2.42;;;2.17;;
38937;SDS011;24727;51.974;20.868;2023-07-31T04:07:29;2.85;;;2.20;;
38937;SDS011;24727;51.974;20.868;2023-07-31T04:09:55;3.28;;;2.40;;
38937;SDS011;24727;51.974;20.868;2023-07-31T04:12:22;3.58;;;2.45;;
38937;SDS011;24727;51.974;20.868;2023-07-31T04:14:49;3.03;;;2.58;;
38937;SDS011;24727;51.974;20.868;2023-07-31T04:17:15;2.88;;;2.30;;
38937;SDS011;24727;51.974;20.868;2023-07-31T04:19:42;4.03;;;2.25;;
38937;SDS011;24727;51.974;20.868;2023-07-31T04:22:09;4.00;;;2.40;;
38937;SDS011;24727;51.974;20.868;2023-07-31T04:24:37;4.10;;;2.47;;
38937;SDS011;24727;51.974;20.868;2023-07-31T04:27:10;4.57;;;2.30;;
38937;SDS011;24727;51.974;20.868;2023-07-31T04:29:37;3.40;;;2.53;;
38937;SDS011;24727;51.974;20.868;2023-07-31T04:32:05;3.90;;;2.58;;
38937;SDS011;24727;51.974;20.868;2023-07-31T04:34:31;3.25;;;2.53;;
38937;SDS011;24727;51.974;20.868;2023-07-31T04:36:57;3.80;;;2.58;;
38937;SDS011;24727;51.974;20.868;2023-07-31T04:39:23;6.75;;;2.55;;
38937;SDS011;24727;51.974;20.868;2023-07-31T04:41:49;2.88;;;2.22;;
38937;SDS011;24727;51.974;20.868;2023-07-31T04:44:14;6.40;;;2.58;;
38937;SDS011;24727;51.974;20.868;2023-07-31T04:46:40;6.38;;;2.50;;
38937;SDS011;24727;51.974;20.868;2023-07-31T04:49:06;5.95;;;2.50;;
38937;SDS011;24727;51.974;20.868;2023-07-31T04:51:32;2.97;;;2.35;;
38937;SDS011;24727;51.974;20.868;2023-07-31T04:53:58;7.07;;;2.25;;
38937;SDS011;24727;51.974;20.868;2023-07-31T04:56:24;3.35;;;2.22;;
38937;SDS011;24727;51.974;20.868;2023-07-31T04:58:50;3.78;;;2.65;;
38937;SDS011;24727;51.974;20.868;2023-07-31T05:01:16;3.67;;;2.60;;
38937;SDS011;24727;51.974;20.868;2023-07-31T05:03:42;4.60;;;2.50;;
38937;SDS011;24727;51.974;20.868;2023-07-31T05:06:08;3.17;;;2.08;;
38937;SDS011;24727;51.974;20.868;2023-07-31T05:08:34;6.97;;;2.53;;
38937;SDS011;24727;51.974;20.868;2023-07-31T05:11:00;3.42;;;2.55;;
38937;SDS011;24727;51.974;20.868;2023-07-31T05:13:25;3.03;;;1.92;;
38937;SDS011;24727;51.974;20.868;2023-07-31T05:15:51;2.42;;;2.22;;
38937;SDS011;24727;51.974;20.868;2023-07-31T05:18:17;4.72;;;2.30;;
38937;SDS011;24727;51.974;20.868;2023-07-31T05:20:44;3.75;;;2.17;;
38937;SDS011;24727;51.974;20.868;2023-07-31T05:23:10;7.18;;;2.40;;
38937;SDS011;24727;51.974;20.868;2023-07-31T05:25:36;3.45;;;2.30;;
38937;SDS011;24727;51.974;20.868;2023-07-31T05:28:02;3.53;;;2.30;;
38937;SDS011;24727;51.974;20.868;2023-07-31T05:30:30;7.55;;;2.20;;
38937;SDS011;24727;51.974;20.868;2023-07-31T05:32:58;2.72;;;2.15;;
38937;SDS011;24727;51.974;20.868;2023-07-31T05:35:24;6.25;;;2.40;;
38937;SDS011;24727;51.974;20.868;2023-07-31T05:37:50;3.17;;;2.53;;
38937;SDS011;24727;51.974;20.868;2023-07-31T05:40:16;5.03;;;2.25;;
38937;SDS011;24727;51.974;20.868;2023-07-31T05:42:44;5.13;;;2.50;;
38937;SDS011;24727;51.974;20.868;2023-07-31T05:45:10;4.65;;;2.55;;
38937;SDS011;24727;51.974;20.868;2023-07-31T05:47:36;4.25;;;2.38;;
38937;SDS011;24727;51.974;20.868;2023-07-31T05:50:03;3.75;;;2.42;;
38937;SDS011;24727;51.974;20.868;2023-07-31T05:52:31;7.20;;;2.80;;
38937;SDS011;24727;51.974;20.868;2023-07-31T05:54:56;4.32;;;2.65;;
38937;SDS011;24727;51.974;20.868;2023-07-31T05:57:22;3.20;;;2.20;;
38937;SDS011;24727;51.974;20.868;2023-07-31T05:59:48;3.03;;;2.45;;
38937;SDS011;24727;51.974;20.868;2023-07-31T06:02:20;5.20;;;2.30;;
38937;SDS011;24727;51.974;20.868;2023-07-31T06:04:46;5.13;;;2.10;;
38937;SDS011;24727;51.974;20.868;2023-07-31T06:07:12;3.25;;;2.03;;
38937;SDS011;24727;51.974;20.868;2023-07-31T06:09:39;2.50;;;2.30;;
38937;SDS011;24727;51.974;20.868;2023-07-31T06:12:08;4.63;;;2.40;;
38937;SDS011;24727;51.974;20.868;2023-07-31T06:14:35;5.60;;;2.90;;
38937;SDS011;24727;51.974;20.868;2023-07-31T06:17:01;4.00;;;2.58;;
38937;SDS011;24727;51.974;20.868;2023-07-31T06:19:27;3.53;;;2.38;;
38937;SDS011;24727;51.974;20.868;2023-07-31T06:21:54;13.65;;;4.57;;
38937;SDS011;24727;51.974;20.868;2023-07-31T06:24:21;5.03;;;2.95;;
38937;SDS011;24727;51.974;20.868;2023-07-31T06:26:47;4.53;;;2.38;;
38937;SDS011;24727;51.974;20.868;2023-07-31T06:29:13;6.28;;;2.30;;
38937;SDS011;24727;51.974;20.868;2023-07-31T06:31:40;3.30;;;2.67;;
38937;SDS011;24727;51.974;20.868;2023-07-31T06:34:07;3.45;;;2.72;;
38937;SDS011;24727;51.974;20.868;2023-07-31T06:36:33;4.68;;;2.40;;
38937;SDS011;24727;51.974;20.868;2023-07-31T06:38:59;4.07;;;2.47;;
38937;SDS011;24727;51.974;20.868;2023-07-31T06:41:25;3.80;;;2.45;;
38937;SDS011;24727;51.974;20.868;2023-07-31T06:43:51;2.60;;;2.40;;
38937;SDS011;24727;51.974;20.868;2023-07-31T06:46:17;3.22;;;2.25;;
38937;SDS011;24727;51.974;20.868;2023-07-31T06:48:43;3.03;;;2.28;;
38937;SDS011;24727;51.974;20.868;2023-07-31T06:51:09;6.05;;;2.40;;
38937;SDS011;24727;51.974;20.868;2023-07-31T06:53:35;4.28;;;2.40;;
38937;SDS011;24727;51.974;20.868;2023-07-31T06:56:01;4.97;;;2.50;;
38937;SDS011;24727;51.974;20.868;2023-07-31T06:58:27;4.00;;;2.38;;
38937;SDS011;24727;51.974;20.868;2023-07-31T07:00:53;4.65;;;2.58;;
38937;SDS011;24727;51.974;20.868;2023-07-31T07:03:19;4.05;;;2.40;;
38937;SDS011;24727;51.974;20.868;2023-07-31T07:05:45;5.18;;;2.40;;
38937;SDS011;24727;51.974;20.868;2023-07-31T07:08:11;4.60;;;2.60;;
38937;SDS011;24727;51.974;20.868;2023-07-31T07:10:37;3.83;;;2.35;;
38937;SDS011;24727;51.974;20.868;2023-07-31T07:13:03;4.47;;;2.58;;
38937;SDS011;24727;51.974;20.868;2023-07-31T07:15:29;8.70;;;2.70;;
38937;SDS011;24727;51.974;20.868;2023-07-31T07:17:55;3.95;;;2.08;;
38937;SDS011;24727;51.974;20.868;2023-07-31T07:20:22;3.40;;;2.30;;
38937;SDS011;24727;51.974;20.868;2023-07-31T07:22:48;7.40;;;2.47;;
38937;SDS011;24727;51.974;20.868;2023-07-31T07:25:14;6.82;;;2.70;;
38937;SDS011;24727;51.974;20.868;2023-07-31T07:27:41;6.22;;;2.50;;
38937;SDS011;24727;51.974;20.868;2023-07-31T07:30:07;7.18;;;2.65;;
38937;SDS011;24727;51.974;20.868;2023-07-31T07:32:34;5.45;;;2.60;;
38937;SDS011;24727;51.974;20.868;2023-07-31T07:35:00;2.63;;;2.40;;
38937;SDS011;24727;51.974;20.868;2023-07-31T07:37:27;4.07;;;2.47;;
38937;SDS011;24727;51.974;20.868;2023-07-31T07:39:53;2.60;;;2.40;;
38937;SDS011;24727;51.974;20.868;2023-07-31T07:42:19;5.07;;;2.58;;
38937;SDS011;24727;51.974;20.868;2023-07-31T07:44:45;4.85;;;2.47;;
38937;SDS011;24727;51.974;20.868;2023-07-31T07:47:12;5.05;;;2.35;;
38937;SDS011;24727;51.974;20.868;2023-07-31T07:49:38;4.32;;;2.13;;
38937;SDS011;24727;51.974;20.868;2023-07-31T07:52:04;2.83;;;2.30;;
38937;SDS011;24727;51.974;20.868;2023-07-31T07:54:32;5.53;;;2.15;;
38937;SDS011;24727;51.974;20.868;2023-07-31T07:56:59;4.50;;;2.35;;
38937;SDS011;24727;51.974;20.868;2023-07-31T07:59:26;8.93;;;2.45;;
38937;SDS011;24727;51.974;20.868;2023-07-31T08:01:53;3.92;;;2.60;;
38937;SDS011;24727;51.974;20.868;2023-07-31T08:04:19;3.22;;;2.30;;
38937;SDS011;24727;51.974;20.868;2023-07-31T08:06:45;5.53;;;2.50;;
38937;SDS011;24727;51.974;20.868;2023-07-31T08:09:12;3.80;;;2.17;;
38937;SDS011;24727;51.974;20.868;2023-07-31T08:11:38;4.45;;;2.10;;
38937;SDS011;24727;51.974;20.868;2023-07-31T08:14:04;2.95;;;2.17;;
38937;SDS011;24727;51.974;20.868;2023-07-31T08:16:30;2.95;;;2.53;;
38937;SDS011;24727;51.974;20.868;2023-07-31T08:18:56;10.25;;;2.38;;
38937;SDS011;24727;51.974;20.868;2023-07-31T08:21:22;4.90;;;2.40;;
38937;SDS011;24727;51.974;20.868;2023-07-31T08:23:48;3.83;;;2.13;;
38937;SDS011;24727;51.974;20.868;2023-07-31T08:26:17;4.82;;;2.03;;
38937;SDS011;24727;51.974;20.868;2023-07-31T08:28:46;6.50;;;2.13;;
38937;SDS011;24727;51.974;20.868;2023-07-31T08:31:12;2.83;;;2.00;;
38937;SDS011;24727;51.974;20.868;2023-07-31T08:33:38;4.78;;;2.17;;
38937;SDS011;24727;51.974;20.868;2023-07-31T08:36:05;1.90;;;1.73;;
38937;SDS011;24727;51.974;20.868;2023-07-31T08:38:32;4.40;;;2.20;;
38937;SDS011;24727;51.974;20.868;2023-07-31T08:40:58;3.65;;;1.90;;
38937;SDS011;24727;51.974;20.868;2023-07-31T08:43:27;5.32;;;2.72;;
38937;SDS011;24727;51.974;20.868;2023-07-31T08:45:53;2.60;;;1.60;;
38937;SDS011;24727;51.974;20.868;2023-07-31T08:48:23;3.15;;;2.00;;
38937;SDS011;24727;51.974;20.868;2023-07-31T08:50:49;5.82;;;1.90;;
38937;SDS011;24727;51.974;20.868;2023-07-31T08:53:17;5.10;;;2.10;;
38937;SDS011;24727;51.974;20.868;2023-07-31T08:55:45;5.45;;;1.88;;
38937;SDS011;24727;51.974;20.868;2023-07-31T08:58:13;3.50;;;2.40;;
38937;SDS011;24727;51.974;20.868;2023-07-31T09:00:40;5.30;;;1.63;;
38937;SDS011;24727;51.974;20.868;2023-07-31T09:03:12;4.28;;;2.10;;
38937;SDS011;24727;51.974;20.868;2023-07-31T09:05:42;4.83;;;1.60;;
38937;SDS011;24727;51.974;20.868;2023-07-31T09:08:10;4.28;;;1.75;;
38937;SDS011;24727;51.974;20.868;2023-07-31T09:10:44;4.45;;;2.05;;
38937;SDS011;24727;51.974;20.868;2023-07-31T09:13:15;2.20;;;1.85;;
38937;SDS011;24727;51.974;20.868;2023-07-31T09:15:44;3.80;;;1.83;;
38937;SDS011;24727;51.974;20.868;2023-07-31T09:18:11;3.05;;;1.70;;
38937;SDS011;24727;51.974;20.868;2023-07-31T09:20:39;3.05;;;1.90;;
38937;SDS011;24727;51.974;20.868;2023-07-31T09:23:14;5.20;;;1.92;;
38937;SDS011;24727;51.974;20.868;2023-07-31T09:25:44;3.55;;;1.80;;
38937;SDS011;24727;51.974;20.868;2023-07-31T09:28:12;5.80;;;1.77;;
38937;SDS011;24727;51.974;20.868;2023-07-31T09:30:46;4.45;;;2.20;;
38937;SDS011;24727;51.974;20.868;2023-07-31T09:33:13;3.55;;;1.98;;
38937;SDS011;24727;51.974;20.868;2023-07-31T09:35:41;2.38;;;1.67;;
38937;SDS011;24727;51.974;20.868;2023-07-31T09:38:14;4.03;;;2.05;;
38937;SDS011;24727;51.974;20.868;2023-07-31T09:40:41;3.20;;;1.80;;
38937;SDS011;24727;51.974;20.868;2023-07-31T09:43:10;3.25;;;2.15;;
38937;SDS011;24727;51.974;20.868;2023-07-31T09:45:40;2.33;;;1.95;;
38937;SDS011;24727;51.974;20.868;2023-07-31T09:48:11;5.70;;;2.20;;
38937;SDS011;24727;51.974;20.868;2023-07-31T09:50:42;3.28;;;1.80;;
38937;SDS011;24727;51.974;20.868;2023-07-31T09:53:09;2.67;;;1.83;;
38937;SDS011;24727;51.974;20.868;2023-07-31T09:55:36;3.95;;;1.80;;
38937;SDS011;24727;51.974;20.868;2023-07-31T09:58:04;4.55;;;1.75;;
38937;SDS011;24727;51.974;20.868;2023-07-31T10:00:31;3.55;;;1.83;;
38937;SDS011;24727;51.974;20.868;2023-07-31T10:03:02;5.13;;;2.10;;
38937;SDS011;24727;51.974;20.868;2023-07-31T10:05:34;4.55;;;1.60;;
38937;SDS011;24727;51.974;20.868;2023-07-31T10:08:05;2.70;;;1.90;;
38937;SDS011;24727;51.974;20.868;2023-07-31T10:10:36;4.53;;;2.00;;
38937;SDS011;24727;51.974;20.868;2023-07-31T10:13:03;5.10;;;2.22;;
38937;SDS011;24727;51.974;20.868;2023-07-31T10:15:31;3.63;;;1.63;;
38937;SDS011;24727;51.974;20.868;2023-07-31T10:17:59;5.32;;;2.20;;
38937;SDS011;24727;51.974;20.868;2023-07-31T10:20:26;3.15;;;1.83;;
38937;SDS011;24727;51.974;20.868;2023-07-31T10:22:54;3.60;;;1.90;;
38937;SDS011;24727;51.974;20.868;2023-07-31T10:25:21;3.33;;;1.70;;
38937;SDS011;24727;51.974;20.868;2023-07-31T10:27:49;3.10;;;1.85;;
38937;SDS011;24727;51.974;20.868;2023-07-31T10:30:18;2.33;;;1.50;;
38937;SDS011;24727;51.974;20.868;2023-07-31T10:32:49;2.63;;;1.70;;
38937;SDS011;24727;51.974;20.868;2023-07-31T10:35:17;3.72;;;2.10;;
38937;SDS011;24727;51.974;20.868;2023-07-31T10:37:44;5.47;;;1.80;;
38937;SDS011;24727;51.974;20.868;2023-07-31T10:43:23;2.65;;;1.40;;
38937;SDS011;24727;51.974;20.868;2023-07-31T10:45:52;2.65;;;1.80;;
38937;SDS011;24727;51.974;20.868;2023-07-31T10:48:18;2.60;;;1.40;;
38937;SDS011;24727;51.974;20.868;2023-07-31T10:50:55;3.70;;;1.52;;
38937;SDS011;24727;51.974;20.868;2023-07-31T10:53:25;3.28;;;1.50;;
38937;SDS011;24727;51.974;20.868;2023-07-31T10:55:53;2.17;;;1.70;;
38937;SDS011;24727;51.974;20.868;2023-07-31T10:58:27;2.25;;;1.40;;
38937;SDS011;24727;51.974;20.868;2023-07-31T11:00:58;4.05;;;1.88;;
38937;SDS011;24727;51.974;20.868;2023-07-31T11:03:26;3.78;;;1.48;;
38937;SDS011;24727;51.974;20.868;2023-07-31T11:06:08;4.30;;;1.38;;
38937;SDS011;24727;51.974;20.868;2023-07-31T11:08:35;2.00;;;1.50;;
38937;SDS011;24727;51.974;20.868;2023-07-31T11:11:07;2.60;;;1.60;;
38937;SDS011;24727;51.974;20.868;2023-07-31T11:13:45;3.33;;;1.58;;
38937;SDS011;24727;51.974;20.868;2023-07-31T11:16:18;3.70;;;1.60;;
38937;SDS011;24727;51.974;20.868;2023-07-31T11:18:46;2.00;;;1.33;;
38937;SDS011;24727;51.974;20.868;2023-07-31T11:21:23;2.35;;;1.20;;
38937;SDS011;24727;51.974;20.868;2023-07-31T11:23:56;4.15;;;1.80;;
38937;SDS011;24727;51.974;20.868;2023-07-31T11:26:23;2.08;;;1.45;;
38937;SDS011;24727;51.974;20.868;2023-07-31T11:28:51;4.32;;;1.60;;
38937;SDS011;24727;51.974;20.868;2023-07-31T11:31:17;3.70;;;1.10;;
38937;SDS011;24727;51.974;20.868;2023-07-31T11:33:44;3.40;;;1.60;;
38937;SDS011;24727;51.974;20.868;2023-07-31T11:36:14;5.10;;;1.30;;
38937;SDS011;24727;51.974;20.868;2023-07-31T11:38:45;2.22;;;1.08;;
38937;SDS011;24727;51.974;20.868;2023-07-31T11:41:13;2.00;;;1.25;;
38937;SDS011;24727;51.974;20.868;2023-07-31T11:43:41;1.95;;;1.10;;
38937;SDS011;24727;51.974;20.868;2023-07-31T11:46:07;6.93;;;1.33;;
38937;SDS011;24727;51.974;20.868;2023-07-31T11:48:37;6.18;;;1.48;;
38937;SDS011;24727;51.974;20.868;2023-07-31T11:51:04;2.67;;;1.45;;
38937;SDS011;24727;51.974;20.868;2023-07-31T11:53:38;3.90;;;1.35;;
38937;SDS011;24727;51.974;20.868;2023-07-31T11:56:19;4.38;;;1.25;;
38937;SDS011;24727;51.974;20.868;2023-07-31T11:58:52;2.92;;;1.40;;
38937;SDS011;24727;51.974;20.868;2023-07-31T12:01:22;2.13;;;1.35;;
38937;SDS011;24727;51.974;20.868;2023-07-31T12:03:49;4.45;;;1.30;;
38937;SDS011;24727;51.974;20.868;2023-07-31T12:06:17;3.05;;;1.30;;
38937;SDS011;24727;51.974;20.868;2023-07-31T12:08:45;3.22;;;1.30;;
38937;SDS011;24727;51.974;20.868;2023-07-31T12:11:12;3.95;;;1.60;;
38937;SDS011;24727;51.974;20.868;2023-07-31T12:13:43;3.63;;;1.50;;
38937;SDS011;24727;51.974;20.868;2023-07-31T12:16:10;3.67;;;1.70;;
38937;SDS011;24727;51.974;20.868;2023-07-31T12:18:37;2.25;;;1.38;;
38937;SDS011;24727;51.974;20.868;2023-07-31T12:21:05;5.30;;;1.40;;
38937;SDS011;24727;51.974;20.868;2023-07-31T12:23:33;3.20;;;1.45;;
38937;SDS011;24727;51.974;20.868;2023-07-31T12:26:03;4.80;;;1.25;;
38937;SDS011;24727;51.974;20.868;2023-07-31T12:28:37;8.90;;;2.30;;
38937;SDS011;24727;51.974;20.868;2023-07-31T12:31:08;4.85;;;1.30;;
38937;SDS011;24727;51.974;20.868;2023-07-31T12:33:49;2.67;;;1.20;;
38937;SDS011;24727;51.974;20.868;2023-07-31T12:36:23;2.35;;;1.17;;
38937;SDS011;24727;51.974;20.868;2023-07-31T12:38:50;4.85;;;1.50;;
38937;SDS011;24727;51.974;20.868;2023-07-31T12:41:17;3.42;;;1.40;;
38937;SDS011;24727;51.974;20.868;2023-07-31T12:43:45;5.65;;;1.50;;
38937;SDS011;24727;51.974;20.868;2023-07-31T12:46:11;2.80;;;1.40;;
38937;SDS011;24727;51.974;20.868;2023-07-31T12:48:38;2.90;;;1.38;;
38937;SDS011;24727;51.974;20.868;2023-07-31T12:51:06;6.22;;;1.40;;
38937;SDS011;24727;51.974;20.868;2023-07-31T12:53:32;2.70;;;1.10;;
38937;SDS011;24727;51.974;20.868;2023-07-31T12:55:59;5.18;;;1.35;;
38937;SDS011;24727;51.974;20.868;2023-07-31T12:58:25;3.40;;;1.67;;
38937;SDS011;24727;51.974;20.868;2023-07-31T13:00:51;2.55;;;1.17;;
38937;SDS011;24727;51.974;20.868;2023-07-31T13:03:17;9.23;;;1.20;;
38937;SDS011;24727;51.974;20.868;2023-07-31T13:05:43;4.57;;;1.40;;
38937;SDS011;24727;51.974;20.868;2023-07-31T13:08:10;2.28;;;1.40;;
38937;SDS011;24727;51.974;20.868;2023-07-31T13:10:36;3.80;;;1.30;;
38937;SDS011;24727;51.974;20.868;2023-07-31T13:13:05;2.78;;;1.33;;
38937;SDS011;24727;51.974;20.868;2023-07-31T13:15:30;3.08;;;1.58;;
38937;SDS011;24727;51.974;20.868;2023-07-31T13:17:57;3.97;;;1.20;;
38937;SDS011;24727;51.974;20.868;2023-07-31T13:20:24;4.10;;;1.10;;
38937;SDS011;24727;51.974;20.868;2023-07-31T13:22:51;5.35;;;1.23;;
38937;SDS011;24727;51.974;20.868;2023-07-31T13:25:26;1.73;;;1.15;;
38937;SDS011;24727;51.974;20.868;2023-07-31T13:27:52;3.92;;;1.38;;
38937;SDS011;24727;51.974;20.868;2023-07-31T13:30:18;1.80;;;1.30;;
38937;SDS011;24727;51.974;20.868;2023-07-31T13:32:44;2.92;;;1.10;;
38937;SDS011;24727;51.974;20.868;2023-07-31T13:35:11;4.88;;;1.20;;
38937;SDS011;24727;51.974;20.868;2023-07-31T13:37:37;2.47;;;1.23;;
38937;SDS011;24727;51.974;20.868;2023-07-31T13:40:03;3.08;;;1.63;;
38937;SDS011;24727;51.974;20.868;2023-07-31T13:42:30;3.47;;;1.10;;
38937;SDS011;24727;51.974;20.868;2023-07-31T13:44:58;2.72;;;1.25;;
38937;SDS011;24727;51.974;20.868;2023-07-31T13:47:24;2.80;;;1.30;;
38937;SDS011;24727;51.974;20.868;2023-07-31T13:49:51;3.10;;;1.00;;
38937;SDS011;24727;51.974;20.868;2023-07-31T13:52:17;5.65;;;1.25;;
38937;SDS011;24727;51.974;20.868;2023-07-31T13:54:42;3.38;;;1.10;;
38937;SDS011;24727;51.974;20.868;2023-07-31T13:57:09;5.00;;;1.30;;
38937;SDS011;24727;51.974;20.868;2023-07-31T13:59:38;3.00;;;1.30;;
38937;SDS011;24727;51.974;20.868;2023-07-31T14:02:03;1.85;;;1.10;;
38937;SDS011;24727;51.974;20.868;2023-07-31T14:04:30;3.45;;;1.73;;
38937;SDS011;24727;51.974;20.868;2023-07-31T14:06:56;3.08;;;1.17;;
38937;SDS011;24727;51.974;20.868;2023-07-31T14:09:22;3.75;;;1.23;;
38937;SDS011;24727;51.974;20.868;2023-07-31T14:11:48;7.30;;;1.40;;
38937;SDS011;24727;51.974;20.868;2023-07-31T14:14:15;4.50;;;1.35;;
38937;SDS011;24727;51.974;20.868;2023-07-31T14:16:43;2.70;;;1.15;;
38937;SDS011;24727;51.974;20.868;2023-07-31T14:19:10;2.33;;;1.25;;
38937;SDS011;24727;51.974;20.868;2023-07-31T14:21:36;6.07;;;1.42;;
38937;SDS011;24727;51.974;20.868;2023-07-31T14:24:02;2.28;;;1.25;;
38937;SDS011;24727;51.974;20.868;2023-07-31T14:26:28;1.85;;;1.33;;
38937;SDS011;24727;51.974;20.868;2023-07-31T14:28:54;3.33;;;1.35;;
38937;SDS011;24727;51.974;20.868;2023-07-31T14:31:20;3.17;;;1.23;;
38937;SDS011;24727;51.974;20.868;2023-07-31T14:33:48;4.88;;;1.40;;
38937;SDS011;24727;51.974;20.868;2023-07-31T14:36:15;4.15;;;1.27;;
38937;SDS011;24727;51.974;20.868;2023-07-31T14:38:41;2.30;;;0.80;;
38937;SDS011;24727;51.974;20.868;2023-07-31T14:41:08;1.77;;;1.23;;
38937;SDS011;24727;51.974;20.868;2023-07-31T14:43:34;4.05;;;1.10;;